Time;durP1;ratioP1;P1;durP2;ratioP2;P2;SDS_P1;SDS_P2;PMS_P1;PMS_P2;Temp;Humidity;BMP_temperature;BMP_pressure;BME280_temperature;BME280_humidity;BME280_pressure;Samples;Min_cycle;Max_cycle;Signal;HPM_P1;HPM_P2
2022/04/10 00:02:27;;;;;;;2.33;1.93;;;2.90;88.30;;;;;;4965042;28;20987;-50
2022/04/10 00:04:53;;;;;;;4.50;1.90;;;2.80;84.90;;;;;;4963799;28;20497;-50
2022/04/10 00:07:20;;;;;;;1.93;1.60;;;2.80;85.20;;;;;;4964534;28;20576;-49
2022/04/10 00:09:46;;;;;;;7.00;2.63;;;2.80;81.40;;;;;;4963010;28;21014;-53
2022/04/10 00:12:13;;;;;;;2.73;1.90;;;2.80;84.40;;;;;;4965274;28;20565;-54
2022/04/10 00:14:39;;;;;;;3.73;1.90;;;2.80;84.30;;;;;;4962134;28;20563;-53
2022/04/10 00:17:06;;;;;;;5.03;2.23;;;2.80;82.80;;;;;;4961657;28;20585;-52
2022/04/10 00:19:34;;;;;;;3.23;1.83;;;2.70;82.50;;;;;;4971718;28;20568;-55
2022/04/10 00:22:00;;;;;;;3.80;2.20;;;2.70;80.00;;;;;;4972482;28;20473;-54
2022/04/10 00:24:28;;;;;;;3.80;2.37;;;2.70;78.60;;;;;;4972883;28;20533;-54
2022/04/10 00:26:54;;;;;;;8.27;2.23;;;2.70;76.30;;;;;;4972202;28;20485;-53
2022/04/10 00:29:21;;;;;;;3.00;2.17;;;2.70;78.40;;;;;;4972688;28;20536;-54
2022/04/10 00:31:48;;;;;;;3.83;1.87;;;2.70;83.10;;;;;;4973153;28;20792;-53
2022/04/10 00:34:15;;;;;;;5.50;2.17;;;2.60;83.90;;;;;;4973518;28;20524;-53
2022/04/10 00:36:42;;;;;;;4.50;2.30;;;2.60;76.10;;;;;;4973378;28;20545;-54
2022/04/10 00:39:09;;;;;;;4.50;2.40;;;2.60;80.50;;;;;;4973046;28;21026;-54
2022/04/10 00:41:36;;;;;;;5.10;2.27;;;2.70;80.90;;;;;;4973610;28;20512;-55
2022/04/10 00:44:04;;;;;;;2.93;2.20;;;2.70;81.60;;;;;;4973255;28;21014;-55
2022/04/10 00:46:32;;;;;;;2.70;1.60;;;2.60;78.10;;;;;;4973033;28;20466;-54
2022/04/10 00:48:58;;;;;;;3.73;1.90;;;2.70;74.10;;;;;;4972311;28;20541;-54
2022/04/10 00:51:41;;;;;;;3.93;2.40;;;2.70;81.50;;;;;;4964425;28;20497;-53
2022/04/10 00:54:11;;;;;;;5.27;2.43;;;2.70;79.40;;;;;;4961208;28;20493;-53
2022/04/10 00:56:38;;;;;;;5.50;2.03;;;2.80;80.30;;;;;;4963622;28;20497;-53
2022/04/10 00:59:05;;;;;;;6.30;1.97;;;2.80;84.00;;;;;;4958345;28;20549;-53
2022/04/10 01:01:33;;;;;;;5.17;3.30;;;2.80;82.00;;;;;;4962440;28;20568;-55
2022/04/10 01:04:00;;;;;;;4.47;2.33;;;2.70;82.20;;;;;;4968472;28;20549;-54
2022/04/10 01:06:26;;;;;;;4.23;1.73;;;2.70;77.50;;;;;;4967896;28;20568;-54
2022/04/10 01:08:53;;;;;;;3.47;2.53;;;2.70;82.20;;;;;;4968429;28;20600;-53
2022/04/10 01:11:21;;;;;;;2.50;2.03;;;2.70;77.60;;;;;;4972341;28;21023;-54
2022/04/10 01:13:49;;;;;;;4.70;2.10;;;2.70;78.00;;;;;;4970948;28;20588;-53
2022/04/10 01:16:15;;;;;;;2.40;2.10;;;2.70;81.50;;;;;;4972608;28;21065;-52
2022/04/10 01:18:42;;;;;;;7.33;2.00;;;2.70;81.90;;;;;;4971521;28;20469;-54
2022/04/10 01:21:12;;;;;;;7.30;2.63;;;2.70;79.40;;;;;;4971488;28;20859;-54
2022/04/10 01:23:41;;;;;;;2.80;2.33;;;2.70;83.20;;;;;;4968590;28;20501;-53
2022/04/10 01:26:07;;;;;;;5.67;2.40;;;2.70;77.90;;;;;;4984147;22;20561;-53
2022/04/10 01:28:34;;;;;;;7.40;2.83;;;2.70;78.80;;;;;;5012115;28;20553;-53
2022/04/10 01:31:00;;;;;;;3.63;2.47;;;2.70;79.20;;;;;;5012794;28;20527;-52
2022/04/10 01:33:27;;;;;;;3.03;1.93;;;2.60;79.10;;;;;;5011693;28;20551;-52
2022/04/10 01:35:53;;;;;;;5.50;2.07;;;2.60;75.50;;;;;;5008335;28;21084;-52
2022/04/10 01:38:21;;;;;;;4.47;2.00;;;2.70;77.90;;;;;;5012879;28;21091;-52
2022/04/10 01:40:49;;;;;;;4.60;2.10;;;2.70;76.50;;;;;;5017521;28;20569;-52
2022/04/10 01:43:15;;;;;;;8.43;2.40;;;2.70;79.00;;;;;;5020210;28;20938;-52
2022/04/10 01:45:42;;;;;;;6.40;2.57;;;2.80;80.70;;;;;;5014759;28;20885;-52
2022/04/10 01:48:08;;;;;;;4.70;2.10;;;2.80;81.70;;;;;;5018611;28;20555;-52
2022/04/10 01:50:35;;;;;;;7.33;2.67;;;2.90;84.30;;;;;;5018399;28;20523;-52
2022/04/10 01:53:04;;;;;;;3.77;2.47;;;2.90;90.80;;;;;;5018907;28;20555;-52
2022/04/10 01:55:31;;;;;;;4.00;2.53;;;2.80;92.20;;;;;;5015890;28;20545;-53
2022/04/10 01:57:59;;;;;;;5.60;2.17;;;2.90;87.70;;;;;;5018056;28;20976;-52
2022/04/10 02:00:25;;;;;;;3.73;2.20;;;2.80;91.30;;;;;;5016466;28;20561;-53
2022/04/10 02:02:52;;;;;;;2.50;2.20;;;2.80;88.30;;;;;;5013485;28;20554;-52
2022/04/10 02:05:19;;;;;;;2.60;1.73;;;2.80;89.60;;;;;;5014270;28;20551;-52
2022/04/10 02:07:45;;;;;;;2.93;1.80;;;2.80;91.90;;;;;;5018912;28;21033;-52
2022/04/10 02:10:12;;;;;;;7.93;2.10;;;2.70;92.20;;;;;;5020134;28;20494;-52
2022/04/10 02:12:38;;;;;;;2.47;1.80;;;2.70;87.40;;;;;;5009103;28;20542;-52
2022/04/10 02:15:07;;;;;;;13.13;2.87;;;2.60;82.40;;;;;;5013872;28;20494;-52
2022/04/10 02:17:33;;;;;;;1.73;1.63;;;2.50;82.60;;;;;;5011358;28;20542;-52
2022/04/10 02:20:00;;;;;;;5.80;2.20;;;2.50;78.00;;;;;;5007816;28;20475;-53
2022/04/10 02:22:26;;;;;;;5.43;1.90;;;2.50;77.60;;;;;;5010327;28;20528;-52
2022/04/10 02:24:53;;;;;;;3.03;2.00;;;2.40;78.20;;;;;;4995091;28;20506;-52
2022/04/10 02:27:20;;;;;;;4.77;2.23;;;2.40;72.40;;;;;;5008070;28;20475;-52
2022/04/10 02:29:47;;;;;;;4.73;2.23;;;2.40;70.90;;;;;;5014250;28;20509;-52
2022/04/10 02:32:15;;;;;;;8.10;2.27;;;2.40;67.60;;;;;;5014730;28;20475;-52
2022/04/10 02:34:42;;;;;;;8.37;2.43;;;2.40;69.70;;;;;;5014481;28;20479;-52
2022/04/10 02:37:08;;;;;;;3.13;2.07;;;2.40;71.00;;;;;;5014579;28;20554;-52
2022/04/10 02:39:35;;;;;;;4.13;2.30;;;2.40;68.00;;;;;;5014105;28;20526;-53
2022/04/10 02:42:01;;;;;;;5.93;2.70;;;2.30;66.30;;;;;;5014476;28;20498;-52
2022/04/10 02:44:28;;;;;;;4.60;2.60;;;2.30;64.90;;;;;;5014703;28;20453;-52
2022/04/10 02:46:54;;;;;;;8.60;2.90;;;2.30;64.80;;;;;;5014470;28;20510;-52
2022/04/10 02:49:22;;;;;;;8.23;2.70;;;2.30;64.00;;;;;;5013263;28;20468;-52
2022/04/10 02:51:49;;;;;;;3.23;2.23;;;2.30;59.00;;;;;;5012758;28;20495;-52
2022/04/10 02:54:16;;;;;;;7.00;2.40;;;2.40;65.30;;;;;;5013410;28;20460;-52
2022/04/10 02:56:42;;;;;;;5.23;3.77;;;2.40;69.90;;;;;;5013048;28;20578;-52
2022/04/10 02:59:09;;;;;;;3.80;2.17;;;2.50;69.50;;;;;;5013105;28;20575;-52
2022/04/10 03:01:36;;;;;;;5.30;2.87;;;2.50;72.50;;;;;;5013934;28;20924;-52
2022/04/10 03:04:02;;;;;;;7.30;2.60;;;2.50;71.50;;;;;;5013355;28;20921;-52
2022/04/10 03:06:30;;;;;;;7.80;2.20;;;2.50;70.90;;;;;;5013923;28;20561;-52
2022/04/10 03:08:57;;;;;;;7.20;2.73;;;2.50;72.80;;;;;;5012606;28;20957;-52
2022/04/10 03:11:25;;;;;;;4.97;1.87;;;2.50;72.80;;;;;;5010900;28;20478;-53
2022/04/10 03:13:51;;;;;;;8.43;3.00;;;2.40;76.20;;;;;;5011871;28;20470;-54
2022/04/10 03:16:18;;;;;;;5.30;2.87;;;2.30;74.60;;;;;;5013999;28;20524;-53
2022/04/10 03:18:44;;;;;;;10.43;2.17;;;2.30;71.20;;;;;;5012911;28;20546;-53
2022/04/10 03:21:11;;;;;;;5.00;2.50;;;2.40;65.10;;;;;;5013905;28;20522;-52
2022/04/10 03:23:39;;;;;;;5.67;2.43;;;2.40;70.10;;;;;;5012759;28;20542;-52
2022/04/10 03:26:05;;;;;;;6.93;2.20;;;2.50;77.50;;;;;;5014455;28;20518;-53
2022/04/10 03:28:32;;;;;;;11.57;2.63;;;2.50;84.90;;;;;;5009160;28;20965;-52
2022/04/10 03:30:58;;;;;;;8.60;2.53;;;2.50;84.50;;;;;;5013407;28;20496;-52
2022/04/10 03:33:25;;;;;;;5.47;2.80;;;2.50;83.90;;;;;;5011653;28;20565;-53
2022/04/10 03:35:53;;;;;;;4.90;2.30;;;2.60;83.00;;;;;;5008812;28;21096;-53
2022/04/10 03:38:20;;;;;;;7.53;2.90;;;2.60;85.40;;;;;;5012070;28;20547;-52
2022/04/10 03:40:48;;;;;;;3.77;2.73;;;2.60;92.50;;;;;;5012291;28;21079;-53
2022/04/10 03:43:15;;;;;;;8.03;2.93;;;2.70;93.20;;;;;;5010727;28;20594;-53
2022/04/10 03:45:42;;;;;;;3.60;2.83;;;2.70;94.00;;;;;;5012243;28;20558;-52
2022/04/10 03:48:09;;;;;;;13.83;2.87;;;2.70;93.70;;;;;;5013829;28;20980;-53
2022/04/10 03:50:36;;;;;;;4.90;2.33;;;2.70;96.30;;;;;;5012241;28;20974;-52
2022/04/10 03:53:03;;;;;;;4.70;2.10;;;2.70;95.80;;;;;;5013918;28;20473;-52
2022/04/10 03:55:30;;;;;;;5.03;2.73;;;2.80;99.20;;;;;;5015566;28;20494;-52
2022/04/10 03:57:58;;;;;;;9.60;2.43;;;2.80;99.90;;;;;;5012830;28;20511;-52
2022/04/10 04:00:24;;;;;;;6.03;2.60;;;2.80;99.90;;;;;;5012498;28;20571;-52
2022/04/10 04:02:51;;;;;;;4.10;2.73;;;2.80;99.60;;;;;;5018465;28;20579;-52
2022/04/10 04:05:18;;;;;;;4.13;2.47;;;2.80;99.90;;;;;;5019575;28;20547;-52
2022/04/10 04:07:44;;;;;;;7.80;2.80;;;2.80;99.90;;;;;;5014208;28;21080;-52
2022/04/10 04:10:11;;;;;;;7.30;3.00;;;2.90;99.90;;;;;;5005617;28;20467;-51
2022/04/10 04:12:38;;;;;;;6.90;1.93;;;2.90;99.90;;;;;;5010061;28;20551;-53
2022/04/10 04:15:08;;;;;;;5.47;2.63;;;2.90;99.90;;;;;;5013574;28;20539;-52
2022/04/10 04:17:35;;;;;;;5.63;2.50;;;2.90;99.90;;;;;;5003116;28;20548;-53
2022/04/10 04:20:03;;;;;;;7.33;2.50;;;2.90;99.90;;;;;;4993263;28;20488;-53
2022/04/10 04:22:30;;;;;;;5.33;2.50;;;3.00;99.90;;;;;;5018454;28;20448;-53
2022/04/10 04:24:56;;;;;;;4.77;3.03;;;2.90;99.90;;;;;;5012551;28;20471;-53
2022/04/10 04:27:23;;;;;;;5.57;2.47;;;3.00;99.90;;;;;;5006224;28;21073;-52
2022/04/10 04:29:49;;;;;;;5.40;2.70;;;3.00;99.90;;;;;;5010626;28;20452;-53
2022/04/10 04:32:17;;;;;;;8.23;2.53;;;3.00;99.90;;;;;;5007380;28;20448;-53
2022/04/10 04:34:44;;;;;;;8.20;2.97;;;3.10;99.90;;;;;;5039258;28;20820;-52
2022/04/10 04:37:11;;;;;;;3.30;2.20;;;3.00;99.90;;;;;;5034369;28;20464;-53
2022/04/10 04:39:37;;;;;;;5.80;2.90;;;3.00;99.90;;;;;;5013064;28;20863;-52
2022/04/10 04:42:05;;;;;;;5.23;2.30;;;3.10;99.90;;;;;;5012360;28;20574;-52
2022/04/10 04:44:31;;;;;;;8.70;2.83;;;3.10;99.90;;;;;;5012363;28;20870;-52
2022/04/10 04:46:58;;;;;;;5.67;2.77;;;3.10;99.90;;;;;;5012441;28;20468;-53
2022/04/10 04:49:26;;;;;;;5.50;2.67;;;3.20;99.90;;;;;;5011140;28;20563;-53
2022/04/10 04:51:52;;;;;;;4.00;2.90;;;3.10;99.90;;;;;;5013639;28;20471;-52
2022/04/10 04:54:19;;;;;;;7.20;3.10;;;3.20;99.90;;;;;;5004635;28;21023;-51
2022/04/10 04:56:46;;;;;;;10.50;5.40;;;3.20;99.90;;;;;;5013353;28;20513;-52
2022/04/10 04:59:14;;;;;;;7.50;3.10;;;3.30;99.90;;;;;;5020076;28;20585;-51
2022/04/10 05:01:41;;;;;;;5.23;2.43;;;3.30;99.90;;;;;;5013048;28;20507;-54
2022/04/10 05:04:07;;;;;;;7.97;3.63;;;3.30;99.90;;;;;;5010595;28;20517;-50
2022/04/10 05:06:35;;;;;;;10.93;3.33;;;3.30;99.90;;;;;;5010907;28;20538;-50
2022/04/10 05:09:02;;;;;;;9.37;2.77;;;3.30;99.90;;;;;;5015051;28;20547;-51
2022/04/10 05:11:28;;;;;;;9.17;2.83;;;3.30;99.90;;;;;;5012226;28;20549;-51
2022/04/10 05:13:55;;;;;;;8.27;2.63;;;3.30;99.90;;;;;;5011887;28;20447;-51
2022/04/10 05:16:22;;;;;;;9.20;3.47;;;3.40;99.90;;;;;;5015987;28;21036;-50
2022/04/10 05:18:49;;;;;;;9.83;3.47;;;3.40;99.90;;;;;;5016083;28;20510;-51
2022/04/10 05:21:15;;;;;;;5.87;3.27;;;3.40;99.90;;;;;;5012043;28;20571;-51
2022/04/10 05:23:43;;;;;;;7.20;3.50;;;3.50;99.90;;;;;;4996811;28;20486;-50
2022/04/10 05:26:10;;;;;;;8.43;2.67;;;3.60;99.90;;;;;;4996545;28;20480;-51
2022/04/10 05:28:36;;;;;;;6.60;3.07;;;3.60;99.90;;;;;;5011884;28;20459;-51
2022/04/10 05:31:04;;;;;;;10.10;3.17;;;3.60;99.90;;;;;;5016730;28;20520;-50
2022/04/10 05:33:33;;;;;;;12.37;2.83;;;3.60;99.90;;;;;;5016243;28;21036;-49
2022/04/10 05:35:59;;;;;;;10.20;3.70;;;3.60;99.90;;;;;;5018190;28;20467;-50
2022/04/10 05:38:26;;;;;;;15.70;3.43;;;3.70;99.90;;;;;;5014168;28;20542;-50
2022/04/10 05:40:54;;;;;;;6.90;3.63;;;3.70;99.90;;;;;;5016724;28;20518;-51
2022/04/10 05:43:21;;;;;;;6.40;2.87;;;3.70;99.90;;;;;;5014497;28;20463;-51
2022/04/10 05:45:48;;;;;;;8.03;2.73;;;3.70;99.90;;;;;;5008020;28;20551;-50
2022/04/10 05:48:15;;;;;;;12.40;3.63;;;3.70;99.90;;;;;;5014992;28;20547;-51
2022/04/10 05:50:41;;;;;;;11.37;5.13;;;3.70;99.90;;;;;;5014295;28;20495;-51
2022/04/10 05:53:08;;;;;;;7.80;2.90;;;3.70;99.90;;;;;;5013607;28;20985;-50
2022/04/10 05:55:35;;;;;;;12.90;3.87;;;3.70;99.90;;;;;;5019498;28;20546;-51
2022/04/10 05:58:04;;;;;;;12.17;2.87;;;3.70;99.90;;;;;;5013912;28;20557;-50
2022/04/10 06:00:31;;;;;;;10.70;3.20;;;3.80;99.90;;;;;;5014222;28;20886;-51
2022/04/10 06:03:02;;;;;;;9.27;3.80;;;3.80;99.90;;;;;;5016712;28;20498;-51
2022/04/10 06:05:28;;;;;;;9.87;3.60;;;3.90;99.90;;;;;;5010759;28;20550;-50
2022/04/10 06:07:55;;;;;;;10.43;3.27;;;3.90;99.90;;;;;;5014096;28;20897;-50
2022/04/10 06:10:21;;;;;;;9.73;3.10;;;3.90;99.90;;;;;;5014187;28;20559;-49
2022/04/10 06:12:48;;;;;;;9.07;2.90;;;3.90;99.90;;;;;;5012924;28;20511;-51
2022/04/10 06:15:19;;;;;;;7.57;3.00;;;4.10;99.90;;;;;;5013641;28;20901;-50
2022/04/10 06:17:45;;;;;;;6.27;3.10;;;4.10;99.90;;;;;;5014478;28;20509;-50
2022/04/10 06:20:12;;;;;;;6.93;2.80;;;4.20;99.90;;;;;;5013181;28;20533;-50
2022/04/10 06:22:39;;;;;;;7.30;3.00;;;4.20;99.90;;;;;;4999901;28;21078;-51
2022/04/10 06:25:06;;;;;;;12.70;3.50;;;4.30;99.90;;;;;;5009157;28;20966;-51
2022/04/10 06:27:33;;;;;;;7.23;3.17;;;4.30;99.90;;;;;;5009886;28;20498;-51
2022/04/10 06:30:00;;;;;;;13.93;3.47;;;4.30;99.90;;;;;;4999029;28;20460;-50
2022/04/10 06:32:27;;;;;;;11.37;3.40;;;4.40;99.90;;;;;;4995050;28;20540;-50
2022/04/10 06:34:54;;;;;;;8.53;3.43;;;4.50;99.90;;;;;;4998584;28;20539;-51
2022/04/10 06:37:20;;;;;;;8.73;3.23;;;4.50;99.90;;;;;;5001222;28;20904;-50
2022/04/10 06:39:47;;;;;;;10.13;4.20;;;4.50;99.90;;;;;;4994698;28;20535;-50
2022/04/10 06:42:13;;;;;;;4.23;2.90;;;4.50;99.90;;;;;;5007214;28;20569;-51
2022/04/10 06:44:42;;;;;;;11.37;3.07;;;4.40;99.90;;;;;;5014596;28;20475;-51
2022/04/10 06:47:08;;;;;;;9.80;3.37;;;4.40;99.90;;;;;;5012971;28;21012;-51
2022/04/10 06:49:36;;;;;;;6.50;2.83;;;4.40;99.90;;;;;;5010683;28;20551;-51
2022/04/10 06:52:04;;;;;;;8.17;3.07;;;4.60;99.90;;;;;;5013412;28;20482;-51
2022/04/10 06:54:31;;;;;;;12.83;3.63;;;4.70;99.90;;;;;;5012329;28;20869;-51
2022/04/10 06:56:57;;;;;;;9.60;3.33;;;4.80;99.90;;;;;;5000069;28;20464;-52
2022/04/10 06:59:24;;;;;;;9.67;2.77;;;4.80;99.90;;;;;;5012873;28;20505;-51
2022/04/10 07:01:50;;;;;;;16.03;3.37;;;4.70;99.90;;;;;;5013303;28;20567;-51
2022/04/10 07:04:17;;;;;;;6.13;3.53;;;5.00;99.90;;;;;;5005100;28;20547;-50
2022/04/10 07:06:46;;;;;;;5.70;2.77;;;5.20;99.90;;;;;;5012475;28;20511;-50
2022/04/10 07:09:14;;;;;;;12.50;3.00;;;5.10;99.90;;;;;;5012565;28;20464;-50
2022/04/10 07:11:41;;;;;;;10.33;3.00;;;5.10;99.90;;;;;;5013431;28;20459;-51
2022/04/10 07:14:08;;;;;;;9.97;2.80;;;5.00;99.90;;;;;;5010019;28;20506;-50
2022/04/10 07:16:34;;;;;;;8.57;3.10;;;4.90;99.90;;;;;;5011140;28;20567;-51
2022/04/10 07:19:01;;;;;;;8.27;3.03;;;4.80;99.90;;;;;;5016902;28;20546;-51
2022/04/10 07:24:13;;;;;;;9.10;3.10;;;5.20;99.90;;;;;;5014366;28;20855;-51
2022/04/10 07:26:40;;;;;;;7.47;4.03;;;5.40;99.90;;;;;;5013648;28;20578;-47
2022/04/10 07:29:10;;;;;;;9.23;2.57;;;5.50;99.90;;;;;;5013604;28;20455;-47
2022/04/10 07:31:37;;;;;;;8.00;2.57;;;5.40;29.80;;;;;;5016627;28;20517;-46
2022/04/10 07:34:03;;;;;;;7.93;3.23;;;5.20;99.90;;;;;;5012092;28;20460;-48
2022/04/10 07:36:31;;;;;;;5.53;3.17;;;5.20;99.90;;;;;;5007594;28;20578;-46
2022/04/10 07:38:57;;;;;;;7.37;2.80;;;5.40;99.90;;;;;;5017714;28;20516;-46
2022/04/10 07:41:25;;;;;;;5.73;2.80;;;5.30;99.90;;;;;;5011015;28;20529;-47
2022/04/10 07:43:52;;;;;;;6.40;2.60;;;5.30;99.90;;;;;;5011729;28;20546;-46
2022/04/10 07:49:02;;;;;;;11.10;2.80;;;5.50;99.90;;;;;;5007603;28;20443;-46
2022/04/10 07:51:29;;;;;;;10.50;3.70;;;5.40;99.90;;;;;;5012935;28;20482;-47
2022/04/10 07:53:57;;;;;;;8.17;3.70;;;5.20;99.90;;;;;;5009525;28;20491;-47
2022/04/10 07:56:25;;;;;;;11.13;3.23;;;5.30;99.90;;;;;;5009894;28;20569;-52
2022/04/10 07:58:51;;;;;;;7.30;3.37;;;5.30;99.90;;;;;;5007421;28;20571;-47
2022/04/10 08:01:18;;;;;;;6.90;3.27;;;5.50;99.90;;;;;;5011427;28;21031;-46
2022/04/10 08:03:46;;;;;;;12.27;3.93;;;5.60;21.50;;;;;;5008635;28;20610;-45
2022/04/10 08:06:12;;;;;;;7.70;3.70;;;5.60;99.90;;;;;;5012059;28;20537;-47
2022/04/10 08:08:39;;;;;;;8.23;3.93;;;5.60;77.70;;;;;;5007268;28;20567;-46
2022/04/10 08:11:06;;;;;;;11.70;3.80;;;5.80;30.40;;;;;;5009170;28;20498;-45
2022/04/10 08:13:34;;;;;;;16.47;4.90;;;5.90;31.60;;;;;;5010225;28;20550;-48
2022/04/10 08:16:01;;;;;;;15.37;5.20;;;6.10;32.00;;;;;;5012281;28;20490;-47
2022/04/10 08:18:28;;;;;;;13.13;4.73;;;5.80;43.50;;;;;;5011986;28;20479;-47
2022/04/10 08:20:54;;;;;;;25.57;9.93;;;5.70;30.10;;;;;;4999734;28;20535;-46
2022/04/10 08:23:21;;;;;;;8.67;3.90;;;5.40;31.60;;;;;;5010429;28;20574;-48
2022/04/10 08:25:47;;;;;;;13.23;4.00;;;5.40;27.90;;;;;;5005945;28;20540;-46
2022/04/10 08:28:14;;;;;;;12.17;5.60;;;5.30;26.40;;;;;;5007038;28;20535;-47
2022/04/10 08:30:42;;;;;;;8.30;3.73;;;5.40;20.40;;;;;;5009922;28;20477;-46
2022/04/10 08:33:09;;;;;;;6.03;3.17;;;5.50;20.90;;;;;;5017669;28;20509;-46
2022/04/10 08:35:35;;;;;;;9.13;3.73;;;5.60;24.00;;;;;;5021039;28;20450;-46
2022/04/10 08:38:02;;;;;;;7.23;3.20;;;5.60;32.00;;;;;;5012037;28;20551;-48
2022/04/10 08:40:32;;;;;;;12.50;3.53;;;6.00;30.90;;;;;;5011368;28;20471;-48
2022/04/10 08:43:00;;;;;;;10.33;3.60;;;6.80;61.30;;;;;;5006281;28;20516;-47
2022/04/10 08:45:27;;;;;;;8.60;3.57;;;7.00;78.50;;;;;;5008768;28;20455;-48
2022/04/10 08:47:56;;;;;;;6.90;2.80;;;6.60;80.50;;;;;;5010238;28;20511;-47
2022/04/10 08:50:24;;;;;;;10.83;3.87;;;6.30;56.40;;;;;;5010764;28;20459;-46
2022/04/10 08:52:52;;;;;;;10.27;3.27;;;6.30;58.80;;;;;;5003708;28;20467;-47
2022/04/10 08:55:19;;;;;;;10.47;3.73;;;6.10;41.60;;;;;;5009914;28;20464;-47
2022/04/10 08:57:46;;;;;;;4.50;2.97;;;5.80;24.50;;;;;;5008610;28;20479;-47
2022/04/10 09:00:13;;;;;;;10.60;3.70;;;5.90;99.90;;;;;;5012378;28;20535;-47
2022/04/10 09:02:47;;;;;;;6.33;2.80;;;6.10;21.90;;;;;;5006254;28;20519;-47
2022/04/10 09:05:18;;;;;;;4.70;2.43;;;6.10;37.10;;;;;;5014071;28;20487;-47
2022/04/10 09:08:06;;;;;;;8.07;2.53;;;6.40;32.40;;;;;;5010608;28;20584;-47
2022/04/10 09:10:53;;;;;;;7.30;3.40;;;6.20;58.00;;;;;;5008032;28;20459;-49
2022/04/10 09:13:24;;;;;;;8.00;3.03;;;6.00;56.20;;;;;;5012626;28;20455;-48
2022/04/10 09:15:50;;;;;;;11.73;3.90;;;6.30;49.50;;;;;;5011459;28;20551;-47
2022/04/10 09:18:17;;;;;;;9.17;3.50;;;6.30;50.90;;;;;;4996549;28;20559;-47
2022/04/10 09:21:04;;;;;;;17.23;3.63;;;6.30;63.50;;;;;;5004773;28;20502;-47
2022/04/10 09:23:31;;;;;;;10.43;3.40;;;6.10;51.40;;;;;;5009687;28;20513;-47
2022/04/10 09:25:59;;;;;;;17.33;4.57;;;6.20;55.30;;;;;;5011978;28;20494;-48
2022/04/10 09:28:44;;;;;;;8.33;2.80;;;6.10;53.50;;;;;;5015008;28;20498;-45
2022/04/10 09:31:27;;;;;;;10.83;3.60;;;6.10;52.20;;;;;;5008662;28;20451;-48
2022/04/10 09:33:54;;;;;;;8.20;3.40;;;6.10;69.80;;;;;;5005239;28;20479;-47
2022/04/10 09:36:39;;;;;;;9.43;3.20;;;6.20;73.70;;;;;;5005661;28;20534;-46
2022/04/10 09:39:08;;;;;;;9.23;3.13;;;6.40;76.50;;;;;;5004433;28;20456;-46
2022/04/10 09:41:35;;;;;;;8.90;2.47;;;6.80;80.50;;;;;;5016588;28;20878;-47
2022/04/10 09:44:13;;;;;;;11.67;3.17;;;7.60;99.80;;;;;;5016630;28;20583;-47
2022/04/10 09:46:41;;;;;;;6.00;2.83;;;7.70;99.90;;;;;;5008349;28;20487;-46
2022/04/10 09:49:13;;;;;;;7.63;2.90;;;7.60;99.90;;;;;;5001955;28;20578;-47
2022/04/10 09:52:08;;;;;;;12.77;3.10;;;7.30;99.90;;;;;;5013867;28;20474;-46
2022/04/10 09:54:37;;;;;;;4.90;2.83;;;6.90;99.90;;;;;;5011591;28;20558;-46
2022/04/10 09:57:05;;;;;;;7.90;2.60;;;7.70;99.90;;;;;;5009971;28;20575;-46
2022/04/10 09:59:37;;;;;;;5.80;2.53;;;7.80;99.90;;;;;;5002693;28;20461;-46
2022/04/10 10:02:06;;;;;;;3.80;2.43;;;7.80;99.90;;;;;;5012764;28;20941;-47
2022/04/10 10:04:35;;;;;;;5.50;2.80;;;7.80;99.90;;;;;;5010389;28;20459;-47
2022/04/10 10:07:04;;;;;;;8.70;2.60;;;7.50;99.90;;;;;;5013834;28;20491;-48
2022/04/10 10:09:33;;;;;;;5.67;2.70;;;7.10;99.90;;;;;;5006886;28;20555;-46
2022/04/10 10:12:01;;;;;;;8.13;3.10;;;7.00;99.90;;;;;;5013410;28;20448;-46
2022/04/10 10:14:30;;;;;;;10.30;2.90;;;7.00;89.70;;;;;;5012225;28;20494;-46
2022/04/10 10:16:58;;;;;;;7.83;2.80;;;7.10;96.40;;;;;;4997720;28;20507;-48
2022/04/10 10:19:25;;;;;;;6.93;2.60;;;7.80;94.50;;;;;;5011179;28;20532;-45
2022/04/10 10:21:53;;;;;;;8.10;3.33;;;8.30;99.90;;;;;;5013780;28;20787;-45
2022/04/10 10:24:24;;;;;;;8.30;2.97;;;8.20;99.90;;;;;;5003732;28;20799;-45
2022/04/10 10:27:18;;;;;;;4.73;2.67;;;8.00;99.90;;;;;;5007118;28;20912;-49
2022/04/10 10:30:07;;;;;;;6.40;2.83;;;7.80;99.90;;;;;;5022778;28;20450;-49
2022/04/10 10:32:41;;;;;;;5.17;2.70;;;7.60;99.90;;;;;;5021813;28;20493;-49
2022/04/10 10:35:11;;;;;;;8.73;2.37;;;7.30;99.90;;;;;;5015085;28;20452;-49
2022/04/10 10:37:51;;;;;;;5.67;2.77;;;8.40;99.90;;;;;;5023192;28;20521;-50
2022/04/10 10:40:21;;;;;;;3.37;2.23;;;9.40;99.90;;;;;;5013937;28;20803;-49
2022/04/10 10:42:52;;;;;;;7.40;3.17;;;9.20;99.90;;;;;;5009594;28;20578;-49
2022/04/10 10:45:40;;;;;;;5.17;2.33;;;8.80;99.90;;;;;;5011707;28;20975;-49
2022/04/10 10:48:26;;;;;;;9.23;2.40;;;7.90;99.90;;;;;;5011566;28;20475;-50
2022/04/10 10:50:54;;;;;;;6.57;2.70;;;7.40;99.90;;;;;;5011303;28;20534;-52
2022/04/10 10:53:42;;;;;;;8.77;2.60;;;8.70;99.90;;;;;;5013381;28;20484;-51
2022/04/10 10:56:13;;;;;;;4.23;2.53;;;9.60;99.90;;;;;;5009056;28;20472;-52
2022/04/10 10:58:42;;;;;;;8.57;2.47;;;9.60;99.90;;;;;;5011838;28;20491;-50
2022/04/10 11:01:09;;;;;;;4.33;1.60;;;9.30;99.90;;;;;;5013252;28;20482;-51
2022/04/10 11:03:59;;;;;;;5.00;2.67;;;8.80;99.90;;;;;;5009258;28;20707;-51
2022/04/10 11:06:29;;;;;;;6.13;2.00;;;9.20;99.90;;;;;;5008923;28;20471;-51
2022/04/10 11:08:56;;;;;;;5.80;2.40;;;8.90;99.90;;;;;;5011747;28;20543;-50
2022/04/10 11:11:35;;;;;;;14.57;2.13;;;9.60;99.90;;;;;;5009751;28;20463;-51
2022/04/10 11:14:03;;;;;;;7.77;2.30;;;9.40;99.90;;;;;;5007978;28;20546;-51
2022/04/10 11:16:29;;;;;;;3.90;1.73;;;9.20;99.90;;;;;;5003406;28;20467;-50
2022/04/10 11:19:02;;;;;;;5.40;1.90;;;8.90;99.90;;;;;;5007026;28;20551;-51
2022/04/10 11:21:31;;;;;;;7.93;2.27;;;8.60;99.90;;;;;;5009424;28;20999;-51
2022/04/10 11:23:59;;;;;;;6.93;2.57;;;8.60;99.90;;;;;;5006012;28;20479;-51
2022/04/10 11:26:35;;;;;;;8.37;3.20;;;8.40;99.90;;;;;;5011167;28;20538;-51
2022/04/10 11:29:08;;;;;;;7.70;2.70;;;8.30;99.90;;;;;;5004878;28;20555;-51
2022/04/10 11:31:36;;;;;;;7.70;2.40;;;8.00;99.90;;;;;;5009477;28;20543;-50
2022/04/10 11:34:14;;;;;;;6.00;2.03;;;7.70;99.90;;;;;;5016410;28;20475;-51
2022/04/10 11:36:53;;;;;;;7.60;2.00;;;7.60;99.90;;;;;;5015897;28;20570;-51
2022/04/10 11:39:24;;;;;;;10.13;2.20;;;7.80;99.90;;;;;;5023323;28;20567;-51
2022/04/10 11:41:51;;;;;;;3.37;2.00;;;8.10;99.90;;;;;;5015048;28;20474;-51
2022/04/10 11:44:19;;;;;;;4.10;1.80;;;8.30;99.90;;;;;;5017458;28;20518;-51
2022/04/10 11:46:46;;;;;;;9.93;2.73;;;8.60;99.90;;;;;;5010933;28;20569;-51
2022/04/10 11:49:13;;;;;;;5.20;2.70;;;8.30;99.90;;;;;;5008858;28;20518;-51
2022/04/10 11:51:51;;;;;;;7.73;2.30;;;8.20;99.90;;;;;;5002560;28;20475;-50
2022/04/10 11:54:27;;;;;;;5.77;2.00;;;7.70;99.90;;;;;;5012979;28;20471;-52
2022/04/10 11:56:54;;;;;;;7.83;1.90;;;7.70;99.90;;;;;;5010485;28;20641;-52
2022/04/10 11:59:22;;;;;;;8.33;2.23;;;8.30;99.90;;;;;;5011935;28;20550;-52
2022/04/10 12:01:52;;;;;;;2.60;1.30;;;8.40;99.90;;;;;;5009713;28;20566;-51
2022/04/10 12:04:19;;;;;;;3.97;1.87;;;8.50;99.90;;;;;;5013100;28;20542;-51
2022/04/10 12:06:46;;;;;;;4.03;2.23;;;8.30;99.90;;;;;;5012860;28;20887;-51
2022/04/10 12:09:14;;;;;;;4.23;1.70;;;8.20;99.90;;;;;;5015506;28;20907;-52
2022/04/10 12:11:41;;;;;;;5.07;2.00;;;8.20;99.90;;;;;;5014616;28;20486;-51
2022/04/10 12:14:18;;;;;;;4.53;2.10;;;8.50;99.90;;;;;;5009513;28;20897;-51
2022/04/10 12:16:46;;;;;;;4.60;1.93;;;8.70;99.90;;;;;;5008931;28;20477;-51
2022/04/10 12:19:12;;;;;;;6.53;2.20;;;9.00;99.90;;;;;;5008672;28;20459;-51
2022/04/10 12:21:48;;;;;;;4.30;2.60;;;8.90;99.90;;;;;;5011961;28;20969;-51
2022/04/10 12:24:20;;;;;;;6.30;1.60;;;8.70;99.90;;;;;;5011641;28;20998;-51
2022/04/10 12:26:47;;;;;;;8.63;2.70;;;8.50;99.90;;;;;;5001969;28;20481;-51
2022/04/10 12:29:14;;;;;;;7.37;2.00;;;8.50;99.90;;;;;;4994537;28;20874;-51
2022/04/10 12:31:42;;;;;;;5.27;2.20;;;8.30;99.90;;;;;;5003913;28;20443;-51
2022/04/10 12:34:11;;;;;;;4.53;1.90;;;8.30;99.90;;;;;;5009455;28;20795;-51
2022/04/10 12:36:46;;;;;;;2.30;1.40;;;8.20;99.90;;;;;;5007109;28;20977;-51
2022/04/10 12:39:23;;;;;;;6.13;2.50;;;8.10;99.90;;;;;;4993235;28;20440;-51
2022/04/10 12:41:58;;;;;;;6.67;1.90;;;8.10;99.90;;;;;;4995430;28;21013;-51
2022/04/10 12:44:25;;;;;;;3.97;2.10;;;7.90;99.90;;;;;;5011945;28;20574;-52
2022/04/10 12:46:51;;;;;;;7.40;3.40;;;7.80;99.90;;;;;;5013815;28;20573;-51
2022/04/10 12:49:20;;;;;;;7.10;2.17;;;8.00;99.90;;;;;;5004593;28;20917;-51
2022/04/10 12:51:50;;;;;;;2.10;1.97;;;8.00;99.90;;;;;;5011519;28;20474;-52
2022/04/10 12:54:17;;;;;;;2.47;1.37;;;8.20;99.90;;;;;;5010448;28;20518;-51
2022/04/10 12:56:43;;;;;;;4.40;1.70;;;9.00;99.90;;;;;;5011579;28;20914;-51
2022/04/10 12:59:10;;;;;;;1.50;1.40;;;8.90;99.90;;;;;;5011479;28;20952;-51
2022/04/10 13:01:37;;;;;;;1.70;1.60;;;9.60;99.90;;;;;;5008281;28;20954;-50
2022/04/10 13:04:04;;;;;;;3.30;1.67;;;9.70;1.40;;;;;;5024873;28;21042;-50
2022/04/10 13:06:48;;;;;;;3.33;1.30;;;9.60;99.90;;;;;;5014179;28;20583;-51
2022/04/10 13:09:16;;;;;;;2.60;1.20;;;9.90;99.90;;;;;;5004915;28;20468;-51